Time;durP1;ratioP1;P1;durP2;ratioP2;P2;SDS_P1;SDS_P2;PMS_P1;PMS_P2;Temp;Humidity;BMP_temperature;BMP_pressure;BME280_temperature;BME280_humidity;BME280_pressure;Samples;Min_cycle;Max_cycle;Signal;HPM_P1;HPM_P2
2022/12/27 00:00:39;;;;;;;8.38;6.03;;;;;;;-5.64;66.39;100415.13;5099007;27;20065;-74
2022/12/27 00:03:04;;;;;;;6.47;3.63;;;;;;;-5.44;66.73;100421.34;5099145;27;20062;-77
2022/12/27 00:05:28;;;;;;;2.63;2.42;;;;;;;-5.38;66.03;100408.38;5080398;27;20080;-73
2022/12/27 00:07:54;;;;;;;3.00;2.65;;;;;;;-5.49;65.82;100420.44;5083098;27;20039;-73
2022/12/27 00:10:19;;;;;;;3.70;3.05;;;;;;;-5.59;66.59;100444.63;5069243;27;20031;-71
2022/12/27 00:12:43;;;;;;;3.58;3.03;;;;;;;-5.50;66.39;100426.47;5099903;27;20149;-79
2022/12/27 00:15:09;;;;;;;5.47;2.97;;;;;;;-5.55;66.31;100415.22;5081598;27;20142;-76
2022/12/27 00:17:33;;;;;;;4.63;2.70;;;;;;;-5.52;66.65;100421.28;5098163;27;20121;-73
2022/12/27 00:19:58;;;;;;;5.65;3.80;;;;;;;-5.61;66.66;100415.16;5066117;27;20126;-76
2022/12/27 00:22:23;;;;;;;6.93;4.53;;;;;;;-5.80;67.33;100419.38;5099417;27;20083;-74
2022/12/27 00:24:48;;;;;;;9.98;4.13;;;;;;;-5.68;67.97;100418.59;5117417;27;20039;-73
2022/12/27 00:27:12;;;;;;;4.72;3.50;;;;;;;-5.57;67.73;100407.41;5117801;27;20055;-72
2022/12/27 00:29:37;;;;;;;5.80;3.20;;;;;;;-5.68;67.22;100396.09;5098025;27;20035;-71
2022/12/27 00:32:01;;;;;;;8.07;4.38;;;;;;;-5.80;68.16;100392.53;5117763;27;20066;-71
2022/12/27 00:34:26;;;;;;;7.93;4.70;;;;;;;-5.91;68.23;100397.72;5082182;27;20035;-72
2022/12/27 00:36:51;;;;;;;2.83;2.53;;;;;;;-5.68;68.46;100406.47;5117339;27;20034;-73
2022/12/27 00:39:15;;;;;;;4.35;3.60;;;;;;;-5.72;68.68;100385.66;5098380;27;20035;-70
2022/12/27 00:41:40;;;;;;;2.58;2.30;;;;;;;-5.76;68.31;100389.13;5116535;27;20038;-72
2022/12/27 00:44:04;;;;;;;2.40;2.00;;;;;;;-5.79;68.73;100384.78;5098877;27;20117;-78
2022/12/27 00:46:29;;;;;;;3.97;3.33;;;;;;;-5.90;69.28;100378.69;5099656;27;20224;-74
2022/12/27 00:48:54;;;;;;;4.40;3.40;;;;;;;-5.87;69.48;100357.91;5095395;27;20030;-72
2022/12/27 00:51:22;;;;;;;5.65;3.13;;;;;;;-5.58;69.23;100356.31;5098439;27;20034;-71
2022/12/27 00:53:48;;;;;;;6.20;3.80;;;;;;;-5.63;68.80;100355.41;5080946;27;20098;-72
2022/12/27 00:56:19;;;;;;;3.90;2.85;;;;;;;-5.71;69.08;100349.31;5116956;27;20034;-73
2022/12/27 00:58:44;;;;;;;4.82;3.33;;;;;;;-5.69;68.92;100345.00;5115015;27;20058;-77
2022/12/27 01:01:10;;;;;;;6.22;3.53;;;;;;;-5.61;69.77;100338.13;5095925;27;20069;-77
2022/12/27 01:03:35;;;;;;;3.75;1.67;;;;;;;-5.57;69.09;100332.09;5094791;27;20030;-74
2022/12/27 01:06:05;;;;;;;4.00;2.88;;;;;;;-5.58;69.30;100332.94;5117780;27;20580;-72
2022/12/27 01:08:29;;;;;;;6.68;2.92;;;;;;;-5.55;69.07;100338.16;5077463;27;20035;-72
2022/12/27 01:10:54;;;;;;;2.05;1.77;;;;;;;-5.45;69.33;100333.00;5083709;27;20041;-73
2022/12/27 01:13:18;;;;;;;1.50;1.35;;;;;;;-5.47;69.73;100330.38;5101991;27;20042;-70
2022/12/27 01:15:43;;;;;;;4.95;3.25;;;;;;;-5.60;69.89;100334.66;5118780;27;20408;-70
2022/12/27 01:18:07;;;;;;;7.40;3.33;;;;;;;-5.67;69.89;100327.72;5099912;27;20035;-71
2022/12/27 01:20:32;;;;;;;4.60;3.25;;;;;;;-5.62;70.28;100320.78;5118286;27;20047;-69
2022/12/27 01:22:57;;;;;;;3.70;2.65;;;;;;;-5.52;70.87;100327.75;5115935;27;20141;-78
2022/12/27 01:25:21;;;;;;;3.92;3.30;;;;;;;-5.28;70.49;100307.94;5118832;27;20042;-78
2022/12/27 01:27:46;;;;;;;6.32;3.72;;;;;;;-5.30;69.78;100301.84;5105724;27;20026;-75
2022/12/27 01:30:11;;;;;;;7.05;3.35;;;;;;;-5.32;69.37;100295.81;5094748;27;20034;-79
2022/12/27 01:32:36;;;;;;;4.30;2.75;;;;;;;-5.35;70.26;100303.59;5130360;27;20106;-77
2022/12/27 01:35:00;;;;;;;1.48;1.38;;;;;;;-5.19;70.44;100301.00;5084408;27;20070;-72
2022/12/27 01:37:28;;;;;;;2.03;1.83;;;;;;;-5.07;69.64;100300.16;5115964;27;20446;-71
2022/12/27 01:39:53;;;;;;;5.72;2.80;;;;;;;-5.22;69.65;100293.22;5080224;27;20035;-70
2022/12/27 01:45:09;;;;;;;4.20;3.43;;;;;;;-5.13;69.49;100290.66;5116262;27;20038;-67
2022/12/27 01:47:52;;;;;;;3.47;3.10;;;;;;;-5.18;69.79;100288.88;5107165;27;20034;-63
2022/12/27 01:50:28;;;;;;;5.93;3.83;;;;;;;-5.27;69.48;100292.34;5115764;27;20033;-65
2022/12/27 01:52:59;;;;;;;4.30;3.83;;;;;;;-5.30;70.00;100276.72;5115406;27;20041;-63
2022/12/27 01:55:43;;;;;;;1.58;1.15;;;;;;;-5.05;69.94;100276.78;5096839;27;20034;-65
2022/12/27 01:58:16;;;;;;;4.35;3.50;;;;;;;-5.18;70.27;100276.75;5115195;27;20466;-65
2022/12/27 02:00:44;;;;;;;2.38;1.63;;;;;;;-5.01;69.98;100274.22;5115504;27;20073;-64
2022/12/27 02:03:12;;;;;;;5.55;3.58;;;;;;;-4.98;69.73;100274.22;5116124;27;20043;-65
2022/12/27 02:05:40;;;;;;;4.38;2.05;;;;;;;-4.98;69.42;100260.34;5116973;27;20485;-64
2022/12/27 02:08:23;;;;;;;4.72;3.50;;;;;;;-4.97;69.35;100260.34;5116708;27;20035;-73
2022/12/27 02:10:49;;;;;;;4.07;2.13;;;;;;;-4.94;69.97;100254.25;5099086;27;20130;-72
2022/12/27 02:13:15;;;;;;;5.57;3.80;;;;;;;-5.11;69.60;100262.06;5097964;27;20087;-75
2022/12/27 02:15:40;;;;;;;5.57;3.95;;;;;;;-5.02;68.95;100246.47;5100152;27;20051;-72
2022/12/27 02:18:05;;;;;;;5.85;4.03;;;;;;;-5.03;68.90;100249.94;5091621;27;20048;-75
2022/12/27 02:20:41;;;;;;;6.07;4.30;;;;;;;-4.99;68.72;100251.69;5097354;27;20039;-66
2022/12/27 02:26:13;;;;;;;5.18;3.53;;;;;;;-5.14;69.62;100267.25;5103661;27;20509;-72
2022/12/27 02:29:04;;;;;;;3.47;2.05;;;;;;;-4.93;69.04;100253.41;5097875;27;20501;-74
2022/12/27 02:31:39;;;;;;;4.53;3.67;;;;;;;-5.04;68.70;100253.41;5050749;28;20139;-78
2022/12/27 02:34:14;;;;;;;3.42;2.58;;;;;;;-4.97;68.72;100243.88;5043736;28;20054;-74
2022/12/27 02:36:40;;;;;;;8.45;3.80;;;;;;;-5.11;69.29;100241.25;5058229;28;20594;-73
2022/12/27 02:39:05;;;;;;;4.65;2.85;;;;;;;-5.05;69.08;100225.66;5058017;28;20128;-74
2022/12/27 02:59:08;;;;;;;8.68;3.30;;;;;;;-4.99;69.05;100189.28;5057236;28;20052;-67
2022/12/27 03:04:53;;;;;;;4.97;3.20;;;;;;;-5.01;68.61;100184.94;5059637;28;20563;-71
2022/12/27 03:07:40;;;;;;;9.48;4.45;;;;;;;-5.20;69.45;100181.50;5060727;27;20048;-74
2022/12/27 03:16:15;;;;;;;9.77;5.82;;;;;;;-4.94;68.64;100177.13;5121793;27;20125;-64
2022/12/27 03:18:51;;;;;;;7.38;3.67;;;;;;;-5.01;68.58;100159.81;5121966;27;20141;-63
2022/12/27 03:27:34;;;;;;;7.45;4.47;;;;;;;-5.14;69.79;100152.88;5116204;27;20421;-62
2022/12/27 03:33:12;;;;;;;4.03;3.58;;;;;;;-5.15;69.58;100152.00;5119247;27;20502;-62
2022/12/27 03:38:01;;;;;;;8.73;3.85;;;;;;;-5.19;69.49;100139.03;5101192;27;20598;-62
2022/12/27 03:38:36;;;;;;;6.72;4.20;;;;;;;-5.09;69.63;100130.38;5107500;27;20047;-63
2022/12/27 03:43:49;;;;;;;5.32;3.42;;;;;;;-5.08;69.80;100132.09;5118720;27;20049;-61
2022/12/27 03:46:35;;;;;;;8.50;5.05;;;;;;;-5.07;69.66;100135.53;5118293;27;20095;-62
2022/12/27 03:49:30;;;;;;;8.10;4.40;;;;;;;-5.06;69.25;100125.16;5080083;27;20420;-61
2022/12/27 03:52:13;;;;;;;8.00;5.47;;;;;;;-5.14;69.97;100116.50;5099960;27;20468;-62
2022/12/27 03:54:40;;;;;;;5.22;3.00;;;;;;;-5.03;69.09;100124.28;5101319;27;20043;-63
2022/12/27 03:57:09;;;;;;;5.88;4.30;;;;;;;-5.02;69.57;100129.47;5116839;27;20059;-64
2022/12/27 03:59:34;;;;;;;5.40;3.58;;;;;;;-5.09;69.91;100130.38;5064718;27;20031;-64
2022/12/27 04:01:59;;;;;;;9.00;5.13;;;;;;;-5.17;69.93;100121.69;5114953;27;20041;-64
2022/12/27 04:04:24;;;;;;;6.07;4.15;;;;;;;-5.07;69.64;100107.81;5117707;27;20039;-64
2022/12/27 04:06:49;;;;;;;3.88;2.72;;;;;;;-5.15;69.91;100110.44;5082143;27;20171;-64
2022/12/27 04:36:31;;;;;;;2.88;2.63;;;;;;;-4.90;67.50;100048.00;5104374;27;20045;-69
2022/12/27 04:38:56;;;;;;;7.43;4.90;;;;;;;-5.09;67.86;100041.13;5099152;27;20038;-69
2022/12/27 04:55:27;;;;;;;9.30;3.45;;;;;;;-5.21;69.32;100019.50;5117732;27;20034;-68
2022/12/27 04:57:52;;;;;;;9.45;5.70;;;;;;;-5.21;69.42;100021.22;5088935;27;20058;-69
2022/12/27 05:03:05;;;;;;;6.38;4.38;;;;;;;-5.40;70.08;100025.56;5098702;27;20038;-68
2022/12/27 05:05:30;;;;;;;8.57;5.28;;;;;;;-5.37;69.66;100016.91;5098269;27;20035;-68
2022/12/27 05:16:06;;;;;;;7.10;4.07;;;;;;;-5.37;70.61;100009.09;5099670;27;20026;-68
2022/12/27 05:18:30;;;;;;;10.43;5.82;;;;;;;-5.36;70.23;100006.50;5112206;27;20053;-67
2022/12/27 05:21:00;;;;;;;6.78;3.67;;;;;;;-5.35;70.97;100004.78;5127555;27;20042;-68
2022/12/27 05:26:08;;;;;;;10.30;5.75;;;;;;;-5.12;70.04;99990.88;5118924;27;20062;-69
2022/12/27 05:28:33;;;;;;;15.27;7.93;;;;;;;-5.26;69.50;99991.75;5099734;27;20042;-69
2022/12/27 05:31:04;;;;;;;8.00;4.47;;;;;;;-5.28;69.95;99998.69;5117685;27;20042;-69
2022/12/27 05:33:31;;;;;;;7.43;3.95;;;;;;;-5.31;70.76;99994.41;5098504;27;20506;-70
2022/12/27 05:35:59;;;;;;;11.15;6.28;;;;;;;-5.37;70.70;99988.31;5122017;27;20042;-68
2022/12/27 05:38:24;;;;;;;13.90;7.40;;;;;;;-5.43;70.76;99980.56;5121746;27;20069;-68
2022/12/27 05:40:48;;;;;;;6.60;4.38;;;;;;;-5.26;70.83;99970.97;5099394;27;20038;-68
2022/12/27 05:43:13;;;;;;;12.60;7.82;;;;;;;-5.34;70.48;99991.78;5098788;27;20037;-71
2022/12/27 05:45:37;;;;;;;9.48;4.90;;;;;;;-5.19;70.78;99983.09;5100112;27;20034;-69
2022/12/27 05:48:02;;;;;;;13.38;5.00;;;;;;;-5.18;70.39;99977.88;5098050;27;20122;-68
2022/12/27 05:50:27;;;;;;;9.38;5.90;;;;;;;-5.27;70.26;99964.06;5116521;27;20086;-69
2022/12/27 05:53:07;;;;;;;11.55;6.45;;;;;;;-5.40;70.73;99984.00;5097964;27;20389;-69
2022/12/27 05:55:31;;;;;;;10.25;6.38;;;;;;;-5.28;70.52;99970.97;5116298;27;20404;-68
2022/12/27 05:57:56;;;;;;;6.90;5.13;;;;;;;-5.17;70.10;99971.81;5116112;27;20062;-62
2022/12/27 06:00:20;;;;;;;10.70;6.38;;;;;;;-5.19;70.61;99973.53;5097440;27;20508;-63
2022/12/27 06:02:45;;;;;;;13.07;6.07;;;;;;;-5.16;70.79;99975.28;5115561;27;20050;-62
2022/12/27 06:05:10;;;;;;;14.18;6.22;;;;;;;-5.19;70.30;99972.72;5097387;27;20046;-68
2022/12/27 06:07:35;;;;;;;9.38;6.03;;;;;;;-5.02;70.28;99968.31;5097560;27;20049;-69
2022/12/27 06:10:00;;;;;;;6.30;4.30;;;;;;;-5.04;70.56;99971.78;5080568;27;20524;-69
2022/12/27 06:12:24;;;;;;;9.32;6.15;;;;;;;-5.04;69.26;99953.59;5081791;27;20446;-69
2022/12/27 06:14:49;;;;;;;11.73;6.40;;;;;;;-5.18;69.97;99964.03;5099333;27;20043;-70
2022/12/27 06:17:14;;;;;;;11.18;5.97;;;;;;;-5.09;70.06;99953.63;5103255;27;20038;-70
2022/12/27 06:19:38;;;;;;;8.95;5.40;;;;;;;-5.08;70.06;99959.69;5099969;27;20038;-68
2022/12/27 06:22:03;;;;;;;10.43;6.28;;;;;;;-5.32;70.14;99960.63;5117513;27;20060;-68
2022/12/27 06:24:27;;;;;;;10.68;6.63;;;;;;;-5.20;70.47;99961.44;5117724;27;20404;-70
2022/12/27 06:26:52;;;;;;;8.98;5.88;;;;;;;-5.21;71.09;99959.72;5116535;27;20407;-69
2022/12/27 06:29:16;;;;;;;6.10;4.22;;;;;;;-5.10;70.29;99975.28;5097466;27;20099;-68
2022/12/27 06:31:41;;;;;;;11.95;4.75;;;;;;;-5.09;70.62;99968.34;5097428;27;20034;-69
2022/12/27 06:34:06;;;;;;;8.15;4.72;;;;;;;-5.10;70.71;99962.28;5117893;27;20045;-68
2022/12/27 06:36:31;;;;;;;11.88;6.78;;;;;;;-5.27;70.70;99971.84;5101501;27;20030;-69
2022/12/27 06:38:56;;;;;;;9.80;5.05;;;;;;;-5.11;70.93;99963.16;5102104;27;20047;-68
2022/12/27 06:41:21;;;;;;;5.53;4.18;;;;;;;-5.17;71.58;99957.94;5101123;27;20071;-69
2022/12/27 06:43:46;;;;;;;7.80;4.53;;;;;;;-5.13;71.06;99955.34;5099220;27;20046;-69
2022/12/27 06:46:14;;;;;;;7.18;5.10;;;;;;;-5.22;70.83;99945.00;5116576;27;20047;-68
2022/12/27 06:48:39;;;;;;;7.88;5.57;;;;;;;-4.99;70.91;99947.50;5116174;27;20488;-70
2022/12/27 06:51:09;;;;;;;8.70;4.45;;;;;;;-5.01;70.14;99931.03;5115871;27;20516;-67
2022/12/27 06:53:37;;;;;;;4.43;3.65;;;;;;;-5.10;70.25;99910.28;5116591;27;20382;-69
2022/12/27 06:56:07;;;;;;;5.65;3.10;;;;;;;-5.06;70.23;99934.53;5116546;27;20042;-69
2022/12/27 06:58:32;;;;;;;9.23;5.07;;;;;;;-5.17;71.01;99929.38;5115771;27;20054;-68
2022/12/27 07:00:57;;;;;;;13.70;7.03;;;;;;;-5.29;71.18;99921.59;5115971;27;20035;-69
2022/12/27 07:03:21;;;;;;;14.00;7.25;;;;;;;-5.39;71.77;99925.09;5097956;27;20165;-69
2022/12/27 07:05:46;;;;;;;7.60;3.97;;;;;;;-5.32;72.22;99919.03;5098452;27;20030;-69
2022/12/27 07:08:10;;;;;;;11.15;6.25;;;;;;;-5.17;72.30;99914.63;5097971;27;20042;-70
2022/12/27 07:10:36;;;;;;;16.00;7.03;;;;;;;-5.09;72.03;99905.97;5101150;27;20125;-68
2022/12/27 07:13:00;;;;;;;15.20;8.90;;;;;;;-5.03;71.41;99905.91;5123864;27;20043;-69
2022/12/27 07:15:25;;;;;;;6.68;4.38;;;;;;;-5.05;71.34;99890.31;5109684;27;20045;-69
2022/12/27 07:17:49;;;;;;;10.27;5.45;;;;;;;-5.00;71.39;99895.53;5109017;27;20043;-69
2022/12/27 07:20:14;;;;;;;15.63;7.25;;;;;;;-4.97;71.80;99890.31;5125511;27;20029;-68
2022/12/27 07:22:39;;;;;;;8.18;5.03;;;;;;;-5.11;71.49;99898.16;5107088;27;20046;-67
2022/12/27 07:25:04;;;;;;;8.90;4.97;;;;;;;-4.99;71.46;99886.84;5106215;27;20049;-69
2022/12/27 07:27:34;;;;;;;8.80;4.20;;;;;;;-5.08;71.70;99877.38;5105312;27;20040;-68
2022/12/27 07:29:59;;;;;;;12.55;4.95;;;;;;;-5.05;71.94;99874.72;5084512;27;20034;-69
2022/12/27 07:32:23;;;;;;;10.45;6.13;;;;;;;-5.14;71.58;99877.38;5118807;27;20117;-69
2022/12/27 07:34:48;;;;;;;11.13;7.18;;;;;;;-5.21;72.40;99875.69;5100042;27;20045;-69
2022/12/27 07:37:12;;;;;;;8.88;5.35;;;;;;;-5.01;72.12;99863.47;5099719;27;20539;-67
2022/12/27 07:39:37;;;;;;;10.13;5.05;;;;;;;-4.99;72.47;99864.31;5065423;27;20046;-67
2022/12/27 07:42:02;;;;;;;9.27;4.63;;;;;;;-5.02;72.56;99873.84;5079635;27;20073;-68
2022/12/27 07:44:31;;;;;;;6.85;5.00;;;;;;;-5.09;72.59;99860.03;5115783;27;20492;-69
2022/12/27 07:46:55;;;;;;;7.97;4.30;;;;;;;-4.99;72.88;99866.91;5118756;27;20492;-69
2022/12/27 07:49:20;;;;;;;10.52;5.03;;;;;;;-4.92;72.31;99855.59;5118835;27;20091;-69
2022/12/27 07:51:44;;;;;;;15.52;9.65;;;;;;;-5.00;72.68;99866.91;5100112;27;20049;-69
2022/12/27 07:54:09;;;;;;;5.22;3.55;;;;;;;-4.96;72.73;99860.81;5118533;27;20076;-69
2022/12/27 07:56:34;;;;;;;11.52;7.15;;;;;;;-4.95;72.06;99859.94;5118590;27;20049;-70
2022/12/27 07:59:00;;;;;;;16.00;7.50;;;;;;;-4.99;72.67;99859.13;5118418;27;20083;-69
2022/12/27 08:01:28;;;;;;;5.25;4.28;;;;;;;-4.93;72.73;99853.88;5099926;27;20151;-68
2022/12/27 08:03:52;;;;;;;4.95;3.38;;;;;;;-4.77;72.74;99852.06;5074567;27;20099;-67
2022/12/27 08:06:28;;;;;;;6.82;4.60;;;;;;;-4.73;71.98;99829.47;5079900;27;20039;-69
2022/12/27 08:08:54;;;;;;;13.98;5.30;;;;;;;-4.82;71.75;99828.66;5100338;27;20074;-67
2022/12/27 08:11:19;;;;;;;9.95;6.15;;;;;;;-5.00;72.52;99818.41;5118481;27;20484;-69
2022/12/27 08:13:44;;;;;;;10.02;5.97;;;;;;;-4.96;72.45;99822.69;5119633;27;20060;-68
2022/12/27 08:16:15;;;;;;;7.47;4.63;;;;;;;-4.67;72.56;99819.03;5118583;27;20069;-68
2022/12/27 08:18:39;;;;;;;13.05;6.90;;;;;;;-4.78;72.16;99809.59;5082345;27;20129;-69
2022/12/27 08:21:04;;;;;;;5.75;3.78;;;;;;;-4.73;72.27;99800.84;5099849;27;20113;-70
2022/12/27 08:23:29;;;;;;;14.65;7.03;;;;;;;-4.83;73.04;99797.47;5117856;27;20054;-63
2022/12/27 08:25:53;;;;;;;6.70;3.30;;;;;;;-4.84;72.83;99788.81;5081658;27;20066;-63
2022/12/27 08:28:18;;;;;;;8.18;5.85;;;;;;;-4.78;72.49;99788.78;5117908;27;20039;-64
2022/12/27 08:30:45;;;;;;;13.88;7.68;;;;;;;-4.77;72.42;99787.91;5117737;27;20558;-68
2022/12/27 08:33:10;;;;;;;12.52;6.95;;;;;;;-4.75;73.02;99782.69;5118076;27;20477;-70
2022/12/27 08:35:39;;;;;;;9.05;5.72;;;;;;;-4.64;72.62;99778.28;5117890;27;20054;-70
2022/12/27 08:38:04;;;;;;;10.77;7.45;;;;;;;-4.68;73.03;99778.28;5075870;27;20039;-69
2022/12/27 08:40:29;;;;;;;13.38;7.65;;;;;;;-4.79;72.76;99784.44;5090723;27;20149;-69
2022/12/27 08:42:54;;;;;;;6.63;4.07;;;;;;;-4.60;72.99;99774.75;5099127;27;20489;-70
2022/12/27 08:45:19;;;;;;;11.60;5.68;;;;;;;-4.64;73.16;99780.00;5117892;27;20412;-70
2022/12/27 08:47:43;;;;;;;6.15;3.83;;;;;;;-4.57;73.27;99758.25;5098814;27;20066;-70
2022/12/27 08:50:08;;;;;;;6.15;4.00;;;;;;;-4.52;73.05;99759.97;5117555;27;20027;-69
2022/12/27 08:52:34;;;;;;;12.85;6.15;;;;;;;-4.52;72.64;99751.28;5117632;27;20409;-71
2022/12/27 08:54:58;;;;;;;7.93;4.65;;;;;;;-4.52;73.24;99756.50;5117326;27;20049;-70
2022/12/27 08:57:23;;;;;;;2.40;2.15;;;;;;;-4.44;72.86;99754.69;5117390;27;20058;-69
2022/12/27 08:59:47;;;;;;;12.15;6.72;;;;;;;-4.46;73.10;99757.28;5117061;27;20042;-69
2022/12/27 09:02:13;;;;;;;18.42;6.15;;;;;;;-4.46;72.96;99759.03;5073163;27;20156;-68
2022/12/27 09:04:37;;;;;;;8.25;5.13;;;;;;;-4.44;72.82;99752.06;5078419;27;20109;-69
2022/12/27 09:07:02;;;;;;;6.95;4.45;;;;;;;-4.41;72.95;99752.06;5103552;27;20159;-69
2022/12/27 09:09:28;;;;;;;11.50;5.97;;;;;;;-4.31;72.12;99732.00;5078262;27;20039;-66
2022/12/27 09:11:53;;;;;;;6.32;4.07;;;;;;;-4.38;72.37;99741.59;5097413;27;20042;-68
2022/12/27 09:14:18;;;;;;;6.57;4.25;;;;;;;-4.38;72.47;99729.44;5117150;27;20035;-68
2022/12/27 09:16:42;;;;;;;7.00;4.40;;;;;;;-4.31;71.87;99722.44;5098426;27;20046;-68
2022/12/27 09:19:08;;;;;;;4.97;3.15;;;;;;;-4.44;72.65;99726.91;5116990;27;20412;-69
2022/12/27 09:21:33;;;;;;;8.32;6.05;;;;;;;-4.47;73.11;99721.75;5116812;27;20038;-67
2022/12/27 09:23:58;;;;;;;14.75;6.72;;;;;;;-4.51;72.97;99711.34;5116530;27;20090;-68
2022/12/27 09:26:27;;;;;;;9.95;6.72;;;;;;;-4.44;73.40;99715.66;5116680;27;20129;-68
2022/12/27 09:28:52;;;;;;;15.43;7.18;;;;;;;-4.43;73.03;99715.63;5045428;27;20072;-69
2022/12/27 09:31:19;;;;;;;6.38;3.97;;;;;;;-4.27;73.85;99718.91;5070854;27;20074;-67
2022/12/27 09:33:43;;;;;;;7.40;5.32;;;;;;;-4.29;73.56;99709.44;5079808;27;20047;-68
2022/12/27 09:36:19;;;;;;;4.97;3.45;;;;;;;-4.24;73.19;99708.50;5115923;27;20037;-71
2022/12/27 09:38:45;;;;;;;12.60;5.00;;;;;;;-4.18;73.12;99697.16;5098253;27;20598;-70
2022/12/27 09:41:31;;;;;;;12.88;6.95;;;;;;;-4.32;73.29;99709.47;5116866;27;20113;-71
2022/12/27 09:44:05;;;;;;;9.23;5.88;;;;;;;-4.20;72.93;99704.97;5117277;27;20101;-70
2022/12/27 09:46:41;;;;;;;8.32;5.43;;;;;;;-4.19;72.58;99698.91;5116813;27;20080;-71
2022/12/27 09:49:17;;;;;;;10.25;5.70;;;;;;;-4.29;72.93;99699.03;5117297;27;20141;-68
2022/12/27 09:51:48;;;;;;;8.10;4.18;;;;;;;-4.33;73.35;99692.97;5084260;27;20401;-70
2022/12/27 09:54:18;;;;;;;7.18;3.97;;;;;;;-4.13;72.43;99678.00;5116303;27;20386;-70
2022/12/27 09:56:43;;;;;;;10.57;6.22;;;;;;;-4.27;72.92;99685.09;5116400;27;20047;-71
2022/12/27 09:59:43;;;;;;;9.50;6.43;;;;;;;-4.30;73.04;99679.94;5097925;27;20091;-70
2022/12/27 10:02:18;;;;;;;13.13;6.50;;;;;;;-4.33;73.29;99679.97;5096944;27;20046;-70
2022/12/27 10:04:43;;;;;;;6.82;4.63;;;;;;;-4.17;73.84;99684.09;5116373;27;20081;-71
2022/12/27 10:07:24;;;;;;;19.17;7.15;;;;;;;-4.29;73.29;99673.88;5116702;27;20078;-72
2022/12/27 10:10:01;;;;;;;10.57;6.75;;;;;;;-4.31;73.63;99678.22;5066768;27;20572;-72
2022/12/27 10:12:39;;;;;;;4.82;3.35;;;;;;;-4.25;73.92;99661.66;5098822;27;20039;-73
2022/12/27 10:15:26;;;;;;;10.25;5.57;;;;;;;-4.20;74.17;99663.34;5098900;27;20386;-71
2022/12/27 10:18:11;;;;;;;11.55;4.75;;;;;;;-4.16;74.37;99665.00;5118212;27;20125;-71
2022/12/27 10:20:52;;;;;;;13.25;7.32;;;;;;;-4.26;73.86;99667.72;5100542;27;20867;-72
2022/12/27 10:23:22;;;;;;;6.10;3.95;;;;;;;-4.01;74.16;99653.56;5119100;27;20043;-72
2022/12/27 10:25:53;;;;;;;13.20;6.60;;;;;;;-4.10;73.22;99649.31;5116317;27;20049;-72
2022/12/27 10:28:27;;;;;;;4.68;3.88;;;;;;;-4.10;74.11;99651.06;5115874;27;20057;-73
2022/12/27 10:30:52;;;;;;;14.48;8.48;;;;;;;-4.28;74.33;99643.47;5115975;27;20046;-72
2022/12/27 10:33:26;;;;;;;9.48;5.72;;;;;;;-4.16;74.48;99645.91;5097276;27;20041;-71
2022/12/27 10:35:51;;;;;;;10.77;6.50;;;;;;;-3.95;74.67;99634.41;5115868;27;20127;-69
2022/12/27 10:38:18;;;;;;;7.03;5.25;;;;;;;-3.84;73.79;99625.56;5097491;27;20039;-69
2022/12/27 10:41:10;;;;;;;11.05;6.20;;;;;;;-3.91;74.09;99617.84;5115841;27;20053;-69
2022/12/27 10:43:40;;;;;;;13.00;6.53;;;;;;;-3.98;73.63;99611.00;5106683;27;20413;-69
2022/12/27 10:46:22;;;;;;;13.65;8.15;;;;;;;-4.13;73.79;99607.72;5118130;27;20054;-69
2022/12/27 10:49:05;;;;;;;4.60;3.35;;;;;;;-3.92;74.25;99600.47;5100550;27;20179;-70
2022/12/27 10:51:38;;;;;;;18.38;9.30;;;;;;;-4.02;74.29;99605.81;5119990;27;20057;-69
2022/12/27 10:54:14;;;;;;;10.15;5.93;;;;;;;-3.98;74.54;99595.38;5101079;27;20392;-69
2022/12/27 10:56:40;;;;;;;11.38;5.35;;;;;;;-3.78;74.43;99599.41;5083521;27;20153;-68
2022/12/27 10:59:22;;;;;;;7.45;5.60;;;;;;;-3.79;73.91;99582.06;5055638;27;20525;-70
2022/12/27 11:02:08;;;;;;;16.40;6.30;;;;;;;-3.87;74.44;99593.47;5119048;27;20051;-70
2022/12/27 11:04:33;;;;;;;14.05;8.23;;;;;;;-3.89;74.01;99583.09;5079943;27;20050;-70
2022/12/27 11:06:58;;;;;;;9.88;6.50;;;;;;;-3.83;74.38;99585.59;5105805;27;20117;-69
2022/12/27 11:09:30;;;;;;;11.50;7.15;;;;;;;-3.97;74.35;99565.84;5072862;27;20130;-69
2022/12/27 11:12:18;;;;;;;11.48;6.68;;;;;;;-3.92;74.99;99564.03;5118334;27;20031;-68
2022/12/27 11:14:56;;;;;;;8.00;5.00;;;;;;;-3.95;74.52;99564.09;5119239;27;20418;-68
2022/12/27 11:17:41;;;;;;;10.82;6.40;;;;;;;-3.87;74.87;99562.22;5106530;27;20122;-69
2022/12/27 11:20:29;;;;;;;8.52;5.40;;;;;;;-3.83;74.33;99563.88;5101985;27;20046;-69
2022/12/27 11:23:03;;;;;;;11.10;6.68;;;;;;;-3.86;74.81;99553.53;5120313;27;20049;-72
2022/12/27 11:25:29;;;;;;;10.25;5.22;;;;;;;-3.76;74.89;99549.91;5123451;27;20114;-69
2022/12/27 11:28:00;;;;;;;8.27;4.90;;;;;;;-3.76;74.67;99544.69;5085807;27;20050;-69
2022/12/27 11:30:33;;;;;;;6.72;4.43;;;;;;;-3.78;74.95;99530.84;5101357;27;20041;-70
2022/12/27 11:33:03;;;;;;;6.28;5.07;;;;;;;-3.78;74.45;99536.03;5101363;27;20997;-69
2022/12/27 11:35:28;;;;;;;8.65;4.60;;;;;;;-3.73;75.05;99534.25;5118923;27;20127;-68
2022/12/27 11:37:53;;;;;;;13.98;7.70;;;;;;;-3.81;74.47;99521.31;5119361;27;20031;-69
2022/12/27 11:40:33;;;;;;;15.13;8.05;;;;;;;-3.97;75.02;99524.19;5119241;27;20038;-68
2022/12/27 11:43:06;;;;;;;10.32;6.30;;;;;;;-4.03;75.76;99533.81;5119142;27;20400;-69
2022/12/27 11:45:43;;;;;;;7.72;4.28;;;;;;;-3.81;75.74;99521.31;5100306;27;20054;-68
2022/12/27 11:48:43;;;;;;;13.32;7.72;;;;;;;-3.80;75.35;99519.56;5120486;27;20408;-69
2022/12/27 11:51:23;;;;;;;10.05;6.25;;;;;;;-3.83;75.64;99504.84;5040058;28;20048;-69
2022/12/27 11:54:03;;;;;;;8.43;4.78;;;;;;;-3.62;75.77;99514.09;4999861;28;20051;-70
2022/12/27 11:56:29;;;;;;;13.45;7.35;;;;;;;-3.78;75.45;99510.00;5035730;28;20044;-67
2022/12/27 11:59:20;;;;;;;10.25;4.53;;;;;;;-3.61;76.02;99501.94;5054178;28;20462;-68
2022/12/27 12:01:57;;;;;;;13.43;7.55;;;;;;;-3.69;75.67;99499.44;5019252;28;20040;-67
2022/12/27 12:04:47;;;;;;;14.57;9.05;;;;;;;-3.75;75.63;99499.53;5018772;28;20047;-68
2022/12/27 12:07:20;;;;;;;9.15;6.38;;;;;;;-3.63;76.32;99485.47;5035770;28;20058;-68
2022/12/27 12:10:22;;;;;;;4.55;3.22;;;;;;;-3.47;75.98;99500.78;5051736;28;20121;-69
2022/12/27 12:12:52;;;;;;;12.60;7.30;;;;;;;-3.51;75.42;99496.53;5054395;28;20642;-68
2022/12/27 12:15:34;;;;;;;9.95;5.25;;;;;;;-3.47;76.06;99500.78;5045125;28;20052;-69
2022/12/27 12:18:31;;;;;;;13.88;8.85;;;;;;;-3.66;75.68;99478.53;5033875;28;20040;-74
2022/12/27 12:21:04;;;;;;;13.73;7.03;;;;;;;-3.67;76.03;99482.03;4959792;28;20037;-75
2022/12/27 12:24:02;;;;;;;22.60;8.57;;;;;;;-3.49;76.42;99467.81;4939597;28;20050;-75
2022/12/27 12:27:08;;;;;;;9.65;5.38;;;;;;;-3.47;76.00;99479.94;4974658;28;20053;-73
2022/12/27 12:29:35;;;;;;;9.15;6.30;;;;;;;-3.39;75.70;99472.88;4955608;28;20101;-73
2022/12/27 12:32:28;;;;;;;15.15;6.85;;;;;;;-3.46;75.75;99471.22;4957835;28;20041;-69
2022/12/27 12:35:02;;;;;;;8.35;5.15;;;;;;;-3.38;75.86;99473.69;4942127;28;20062;-70
2022/12/27 12:38:00;;;;;;;15.60;8.77;;;;;;;-3.37;75.77;99468.47;4978274;28;20052;-72
2022/12/27 12:40:44;;;;;;;8.68;4.72;;;;;;;-3.44;75.71;99463.41;4959937;28;20215;-72
2022/12/27 12:43:12;;;;;;;12.52;8.50;;;;;;;-3.62;76.34;99454.16;4954514;28;20042;-69
2022/12/27 12:45:43;;;;;;;7.10;4.63;;;;;;;-3.46;76.63;99457.34;4950448;28;20134;-73
2022/12/27 12:48:13;;;;;;;16.00;8.55;;;;;;;-3.44;76.50;99456.44;4955617;28;20038;-75
2022/12/27 12:51:16;;;;;;;12.25;6.03;;;;;;;-3.36;76.49;99436.28;4933788;28;20062;-75
2022/12/27 12:54:16;;;;;;;9.82;6.20;;;;;;;-3.21;76.40;99439.50;4878818;29;20099;-72
2022/12/27 12:57:11;;;;;;;19.20;6.25;;;;;;;-3.24;76.34;99440.41;4860159;29;20521;-72
2022/12/27 12:59:45;;;;;;;13.10;8.07;;;;;;;-3.37;76.02;99428.50;4931782;28;20051;-73
2022/12/27 13:02:35;;;;;;;11.48;8.30;;;;;;;-3.22;76.36;99441.25;4926957;28;20589;-72
2022/12/27 13:05:27;;;;;;;12.52;6.40;;;;;;;-3.35;76.84;99424.97;4925267;28;20203;-73
2022/12/27 13:07:57;;;;;;;8.80;4.93;;;;;;;-3.28;76.82;99425.75;5019572;28;20044;-72
2022/12/27 13:10:23;;;;;;;9.70;6.10;;;;;;;-3.27;76.84;99421.41;5014089;28;20442;-73
2022/12/27 13:13:18;;;;;;;10.82;6.40;;;;;;;-3.26;77.01;99436.13;4998328;28;20083;-73
2022/12/27 13:16:20;;;;;;;8.32;5.47;;;;;;;-3.31;77.34;99424.06;4935544;28;20038;-71
2022/12/27 13:18:55;;;;;;;17.42;9.55;;;;;;;-3.28;77.54;99417.94;4935406;28;20149;-71
2022/12/27 13:21:41;;;;;;;12.95;8.18;;;;;;;-3.26;77.41;99412.66;4935363;28;20054;-71